sensor_id;sensor_type;location;lat;lon;timestamp;pressure;altitude;pressure_sealevel;temperature;humidity
75409;BME280;63979;55.644;37.734;2023-10-31T00:03:53;99546.88;;;10.53;77.78
75409;BME280;63979;55.644;37.734;2023-10-31T00:08:53;99533.53;;;10.53;77.66
75409;BME280;63979;55.644;37.734;2023-10-31T00:13:54;99532.34;;;10.57;77.30
75409;BME280;63979;55.644;37.734;2023-10-31T00:18:55;99530.00;;;10.53;77.41
75409;BME280;63979;55.644;37.734;2023-10-31T00:23:56;99538.25;;;10.50;77.32
75409;BME280;63979;55.644;37.734;2023-10-31T00:28:57;99547.28;;;10.60;77.08
75409;BME280;63979;55.644;37.734;2023-10-31T00:33:57;99547.44;;;10.46;77.58
75409;BME280;63979;55.644;37.734;2023-10-31T00:38:58;99565.03;;;10.48;77.68
75409;BME280;63979;55.644;37.734;2023-10-31T00:43:59;99564.19;;;10.35;77.76
75409;BME280;63979;55.644;37.734;2023-10-31T00:49:00;99578.72;;;10.44;78.10
75409;BME280;63979;55.644;37.734;2023-10-31T00:54:00;99575.31;;;10.42;77.57
75409;BME280;63979;55.644;37.734;2023-10-31T00:59:01;99538.72;;;10.31;77.06
75409;BME280;63979;55.644;37.734;2023-10-31T01:04:02;99591.25;;;10.67;76.53
75409;BME280;63979;55.644;37.734;2023-10-31T01:09:03;99607.25;;;10.67;76.39
75409;BME280;63979;55.644;37.734;2023-10-31T01:14:04;99617.31;;;10.63;76.42
75409;BME280;63979;55.644;37.734;2023-10-31T01:19:04;99618.25;;;10.62;76.55
75409;BME280;63979;55.644;37.734;2023-10-31T01:24:06;99621.50;;;10.55;76.75
75409;BME280;63979;55.644;37.734;2023-10-31T01:29:06;99621.16;;;10.59;76.68
75409;BME280;63979;55.644;37.734;2023-10-31T01:34:07;99636.88;;;10.51;76.79
75409;BME280;63979;55.644;37.734;2023-10-31T01:39:08;99637.28;;;10.58;76.51
75409;BME280;63979;55.644;37.734;2023-10-31T01:44:10;99647.63;;;10.62;76.11
75409;BME280;63979;55.644;37.734;2023-10-31T01:49:11;99656.56;;;10.74;76.01
75409;BME280;63979;55.644;37.734;2023-10-31T01:54:12;99658.59;;;10.71;75.91
75409;BME280;63979;55.644;37.734;2023-10-31T01:59:14;99670.81;;;10.62;76.01
75409;BME280;63979;55.644;37.734;2023-10-31T02:04:15;99664.72;;;10.60;76.44
75409;BME280;63979;55.644;37.734;2023-10-31T02:09:16;99679.03;;;10.59;76.47
75409;BME280;63979;55.644;37.734;2023-10-31T02:14:17;99686.19;;;10.58;76.10
75409;BME280;63979;55.644;37.734;2023-10-31T02:19:21;99693.56;;;10.55;76.11
75409;BME280;63979;55.644;37.734;2023-10-31T02:24:21;99698.25;;;10.51;76.54
75409;BME280;63979;55.644;37.734;2023-10-31T02:29:22;99704.66;;;10.49;76.86
75409;BME280;63979;55.644;37.734;2023-10-31T02:34:23;99688.97;;;10.31;76.66
75409;BME280;63979;55.644;37.734;2023-10-31T02:39:24;99716.81;;;10.40;76.97
75409;BME280;63979;55.644;37.734;2023-10-31T02:44:24;99709.69;;;10.41;76.77
75409;BME280;63979;55.644;37.734;2023-10-31T02:49:25;99703.16;;;10.32;76.86
75409;BME280;63979;55.644;37.734;2023-10-31T02:54:26;99720.09;;;10.18;77.23
75409;BME280;63979;55.644;37.734;2023-10-31T02:59:27;99700.41;;;9.81;78.41
75409;BME280;63979;55.644;37.734;2023-10-31T03:04:28;99703.09;;;9.94;78.17
75409;BME280;63979;55.644;37.734;2023-10-31T03:09:28;99749.03;;;10.24;77.96
75409;BME280;63979;55.644;37.734;2023-10-31T03:14:29;99695.03;;;10.08;77.32
75409;BME280;63979;55.644;37.734;2023-10-31T03:19:30;99752.50;;;10.52;76.81
75409;BME280;63979;55.644;37.734;2023-10-31T03:24:31;99755.16;;;10.52;76.82
75409;BME280;63979;55.644;37.734;2023-10-31T03:29:32;99722.69;;;10.32;76.64
75409;BME280;63979;55.644;37.734;2023-10-31T03:34:33;99761.25;;;10.54;76.83
75409;BME280;63979;55.644;37.734;2023-10-31T03:39:33;99764.44;;;10.59;76.42
75409;BME280;63979;55.644;37.734;2023-10-31T03:44:34;99779.38;;;10.61;76.07
75409;BME280;63979;55.644;37.734;2023-10-31T03:49:39;99770.31;;;10.64;75.82
75409;BME280;63979;55.644;37.734;2023-10-31T03:54:39;99775.34;;;10.56;76.27
75409;BME280;63979;55.644;37.734;2023-10-31T03:59:40;99799.69;;;10.51;76.57
75409;BME280;63979;55.644;37.734;2023-10-31T04:04:41;99801.59;;;10.62;76.57
75409;BME280;63979;55.644;37.734;2023-10-31T04:09:42;99797.44;;;10.58;76.28
75409;BME280;63979;55.644;37.734;2023-10-31T04:14:43;99768.25;;;10.29;76.50
75409;BME280;63979;55.644;37.734;2023-10-31T04:19:44;99817.28;;;10.54;76.73
75409;BME280;63979;55.644;37.734;2023-10-31T04:24:45;99829.56;;;10.56;76.60
75409;BME280;63979;55.644;37.734;2023-10-31T04:29:45;99831.06;;;10.60;76.45
75409;BME280;63979;55.644;37.734;2023-10-31T04:34:46;99833.72;;;10.60;76.75
75409;BME280;63979;55.644;37.734;2023-10-31T04:39:47;99834.16;;;10.54;77.60
75409;BME280;63979;55.644;37.734;2023-10-31T04:44:48;99845.59;;;10.56;78.54
75409;BME280;63979;55.644;37.734;2023-10-31T04:49:49;99845.47;;;10.58;78.37
75409;BME280;63979;55.644;37.734;2023-10-31T04:54:49;99838.66;;;10.92;77.91
75409;BME280;63979;55.644;37.734;2023-10-31T04:59:50;99859.13;;;11.55;74.61
75409;BME280;63979;55.644;37.734;2023-10-31T05:04:51;99862.88;;;11.52;74.17
75409;BME280;63979;55.644;37.734;2023-10-31T05:09:52;99859.13;;;11.42;74.39
75409;BME280;63979;55.644;37.734;2023-10-31T05:14:53;99860.31;;;11.51;73.97
75409;BME280;63979;55.644;37.734;2023-10-31T05:19:54;99871.63;;;11.54;73.67
75409;BME280;63979;55.644;37.734;2023-10-31T05:24:55;99885.75;;;11.56;74.82
75409;BME280;63979;55.644;37.734;2023-10-31T05:29:56;99852.81;;;11.43;74.24
75409;BME280;63979;55.644;37.734;2023-10-31T05:34:56;99889.34;;;11.68;73.69
75409;BME280;63979;55.644;37.734;2023-10-31T05:39:57;99900.88;;;11.94;73.07
75409;BME280;63979;55.644;37.734;2023-10-31T05:44:59;99914.09;;;12.08;72.53
75409;BME280;63979;55.644;37.734;2023-10-31T05:50:00;99897.56;;;11.91;72.45
75409;BME280;63979;55.644;37.734;2023-10-31T05:55:00;99928.66;;;12.04;72.04
75409;BME280;63979;55.644;37.734;2023-10-31T06:00:02;99929.50;;;12.17;71.71
75409;BME280;63979;55.644;37.734;2023-10-31T06:05:03;99943.25;;;12.24;70.82
75409;BME280;63979;55.644;37.734;2023-10-31T06:10:05;99959.28;;;12.37;70.96
75409;BME280;63979;55.644;37.734;2023-10-31T06:15:07;99965.34;;;12.39;71.55
75409;BME280;63979;55.644;37.734;2023-10-31T06:20:09;99974.75;;;12.44;72.08
75409;BME280;63979;55.644;37.734;2023-10-31T06:25:10;99971.34;;;12.66;70.86
75409;BME280;63979;55.644;37.734;2023-10-31T06:30:11;99963.22;;;13.03;69.73
75409;BME280;63979;55.644;37.734;2023-10-31T06:35:12;99970.28;;;13.39;68.05
75409;BME280;63979;55.644;37.734;2023-10-31T06:40:13;99969.78;;;13.34;68.07
75409;BME280;63979;55.644;37.734;2023-10-31T06:45:13;99972.75;;;13.76;67.06
75409;BME280;63979;55.644;37.734;2023-10-31T06:50:14;99939.69;;;13.53;66.53
75409;BME280;63979;55.644;37.734;2023-10-31T06:55:15;99984.44;;;14.30;64.69
75409;BME280;63979;55.644;37.734;2023-10-31T07:00:16;99979.53;;;14.35;64.01
75409;BME280;63979;55.644;37.734;2023-10-31T07:05:17;99961.59;;;14.36;63.43
75409;BME280;63979;55.644;37.734;2023-10-31T07:10:20;100017.50;;;14.09;64.53
75409;BME280;63979;55.644;37.734;2023-10-31T07:15:21;100025.31;;;13.78;66.41
75409;BME280;63979;55.644;37.734;2023-10-31T07:20:22;100031.91;;;13.96;65.96
75409;BME280;63979;55.644;37.734;2023-10-31T07:25:23;100037.53;;;13.93;65.50
75409;BME280;63979;55.644;37.734;2023-10-31T07:30:23;100047.88;;;13.87;65.79
75409;BME280;63979;55.644;37.734;2023-10-31T07:35:24;100054.38;;;14.07;66.02
75409;BME280;63979;55.644;37.734;2023-10-31T07:40:25;100055.59;;;13.91;66.09
75409;BME280;63979;55.644;37.734;2023-10-31T07:45:26;100045.72;;;14.91;63.31
75409;BME280;63979;55.644;37.734;2023-10-31T07:50:27;100063.88;;;17.91;54.11
75409;BME280;63979;55.644;37.734;2023-10-31T07:55:28;100057.91;;;21.46;45.47
75409;BME280;63979;55.644;37.734;2023-10-31T08:00:29;100066.22;;;23.50;38.91
75409;BME280;63979;55.644;37.734;2023-10-31T08:05:31;100081.47;;;25.51;35.32
75409;BME280;63979;55.644;37.734;2023-10-31T08:10:32;100068.13;;;25.84;33.83
75409;BME280;63979;55.644;37.734;2023-10-31T08:15:34;100087.47;;;27.08;33.87
75409;BME280;63979;55.644;37.734;2023-10-31T08:20:35;100084.88;;;28.26;31.45
75409;BME280;63979;55.644;37.734;2023-10-31T08:25:36;100084.22;;;29.15;28.28
75409;BME280;63979;55.644;37.734;2023-10-31T08:30:37;100079.84;;;29.71;28.38
75409;BME280;63979;55.644;37.734;2023-10-31T08:35:38;100080.13;;;31.11;26.68
75409;BME280;63979;55.644;37.734;2023-10-31T08:40:39;100083.75;;;31.41;25.19
75409;BME280;63979;55.644;37.734;2023-10-31T08:45:41;100074.78;;;32.81;24.50
75409;BME280;63979;55.644;37.734;2023-10-31T08:50:42;100076.44;;;31.88;24.01
75409;BME280;63979;55.644;37.734;2023-10-31T08:55:43;100042.09;;;30.28;25.51
75409;BME280;63979;55.644;37.734;2023-10-31T09:00:46;100078.94;;;31.37;24.35
75409;BME280;63979;55.644;37.734;2023-10-31T09:05:47;100080.53;;;28.77;27.21
75409;BME280;63979;55.644;37.734;2023-10-31T09:10:48;100066.09;;;28.10;28.25
75409;BME280;63979;55.644;37.734;2023-10-31T09:15:49;100075.91;;;25.02;32.91
75409;BME280;63979;55.644;37.734;2023-10-31T09:20:50;100082.19;;;21.24;40.74
75409;BME280;63979;55.644;37.734;2023-10-31T09:25:51;100087.44;;;18.08;48.29
75409;BME280;63979;55.644;37.734;2023-10-31T09:30:52;100076.13;;;16.18;54.96
75409;BME280;63979;55.644;37.734;2023-10-31T09:35:53;100043.25;;;14.99;57.38
75409;BME280;63979;55.644;37.734;2023-10-31T09:40:54;100073.91;;;15.40;57.35
75409;BME280;63979;55.644;37.734;2023-10-31T09:45:57;100062.34;;;15.90;55.77
75409;BME280;63979;55.644;37.734;2023-10-31T09:50:58;100075.69;;;17.32;51.03
75409;BME280;63979;55.644;37.734;2023-10-31T09:55:58;100071.44;;;21.14;41.79
75409;BME280;63979;55.644;37.734;2023-10-31T10:01:00;100050.69;;;23.36;36.33
75409;BME280;63979;55.644;37.734;2023-10-31T10:06:02;100071.47;;;25.79;31.89
75409;BME280;63979;55.644;37.734;2023-10-31T10:11:03;100031.53;;;26.48;30.58
75409;BME280;63979;55.644;37.734;2023-10-31T10:16:04;100086.63;;;27.07;28.84
75409;BME280;63979;55.644;37.734;2023-10-31T10:21:06;100090.78;;;27.97;27.76
75409;BME280;63979;55.644;37.734;2023-10-31T10:26:07;100085.91;;;28.39;27.11
75409;BME280;63979;55.644;37.734;2023-10-31T10:31:08;100076.63;;;27.74;28.13
75409;BME280;63979;55.644;37.734;2023-10-31T10:36:10;100054.09;;;27.78;28.08
75409;BME280;63979;55.644;37.734;2023-10-31T10:41:13;100043.31;;;28.74;26.43
75409;BME280;63979;55.644;37.734;2023-10-31T10:46:16;100055.50;;;28.20;27.47
75409;BME280;63979;55.644;37.734;2023-10-31T10:51:21;100048.34;;;28.06;28.33
75409;BME280;63979;55.644;37.734;2023-10-31T10:56:28;100054.56;;;28.66;27.61
75409;BME280;63979;55.644;37.734;2023-10-31T11:01:33;100068.03;;;29.32;26.54
75409;BME280;63979;55.644;37.734;2023-10-31T11:06:37;100029.22;;;25.39;31.67
75409;BME280;63979;55.644;37.734;2023-10-31T11:11:39;100028.56;;;22.38;37.78
75409;BME280;63979;55.644;37.734;2023-10-31T11:16:45;100072.31;;;22.20;38.93
75409;BME280;63979;55.644;37.734;2023-10-31T11:21:56;100062.59;;;22.73;38.08
75409;BME280;63979;55.644;37.734;2023-10-31T11:27:00;100057.81;;;22.36;37.82
75409;BME280;63979;55.644;37.734;2023-10-31T11:32:01;100036.09;;;22.20;37.73
75409;BME280;63979;55.644;37.734;2023-10-31T11:37:24;100064.66;;;20.51;41.64
75409;BME280;63979;55.644;37.734;2023-10-31T11:42:31;100066.47;;;18.57;46.65
75409;BME280;63979;55.644;37.734;2023-10-31T11:47:48;100064.22;;;17.10;51.00
75409;BME280;63979;55.644;37.734;2023-10-31T11:53:12;100019.97;;;16.13;53.43
75409;BME280;63979;55.644;37.734;2023-10-31T11:58:20;100056.53;;;16.16;53.98
75409;BME280;63979;55.644;37.734;2023-10-31T12:03:22;100059.59;;;16.02;54.70
75409;BME280;63979;55.644;37.734;2023-10-31T12:08:39;100055.84;;;15.63;55.74
75409;BME280;63979;55.644;37.734;2023-10-31T12:13:50;100010.28;;;14.97;56.80
75409;BME280;63979;55.644;37.734;2023-10-31T12:18:59;100061.56;;;14.40;59.04
75409;BME280;63979;55.644;37.734;2023-10-31T12:24:07;100061.63;;;13.60;62.07
75409;BME280;63979;55.644;37.734;2023-10-31T12:29:13;100054.09;;;13.06;64.35
75409;BME280;63979;55.644;37.734;2023-10-31T12:34:15;100054.41;;;12.90;65.00
75409;BME280;63979;55.644;37.734;2023-10-31T12:39:18;100060.72;;;12.89;65.06
75409;BME280;63979;55.644;37.734;2023-10-31T12:44:25;100070.91;;;12.47;66.09
75409;BME280;63979;55.644;37.734;2023-10-31T12:49:27;100074.53;;;12.10;67.74
75409;BME280;63979;55.644;37.734;2023-10-31T12:54:33;100031.41;;;11.51;68.92
75409;BME280;63979;55.644;37.734;2023-10-31T12:59:36;100080.38;;;11.51;70.45
75409;BME280;63979;55.644;37.734;2023-10-31T13:04:38;100068.66;;;10.87;72.92
75409;BME280;63979;55.644;37.734;2023-10-31T13:09:39;100080.44;;;10.98;73.00
75409;BME280;63979;55.644;37.734;2023-10-31T13:14:41;100089.09;;;10.74;74.74
75409;BME280;63979;55.644;37.734;2023-10-31T13:19:42;100100.59;;;10.89;73.42
75409;BME280;63979;55.644;37.734;2023-10-31T13:24:43;100099.38;;;11.07;73.19
75409;BME280;63979;55.644;37.734;2023-10-31T13:29:43;100088.59;;;11.09;73.42
75409;BME280;63979;55.644;37.734;2023-10-31T13:34:46;100093.53;;;11.15;73.28
75409;BME280;63979;55.644;37.734;2023-10-31T13:39:47;100085.13;;;10.94;73.96
75409;BME280;63979;55.644;37.734;2023-10-31T13:44:48;100080.34;;;10.99;73.89
75409;BME280;63979;55.644;37.734;2023-10-31T13:49:49;100091.09;;;11.12;73.77
75409;BME280;63979;55.644;37.734;2023-10-31T13:54:50;100084.72;;;11.00;74.21
75409;BME280;63979;55.644;37.734;2023-10-31T13:59:51;100080.63;;;10.94;75.00
75409;BME280;63979;55.644;37.734;2023-10-31T14:04:51;100075.59;;;10.90;75.05
75409;BME280;63979;55.644;37.734;2023-10-31T14:09:52;100083.50;;;10.65;75.53
75409;BME280;63979;55.644;37.734;2023-10-31T14:14:53;100081.69;;;10.65;76.13
75409;BME280;63979;55.644;37.734;2023-10-31T14:19:54;100073.00;;;10.61;76.25
75409;BME280;63979;55.644;37.734;2023-10-31T14:24:55;100080.28;;;10.59;76.76
75409;BME280;63979;55.644;37.734;2023-10-31T14:29:56;100033.25;;;10.30;77.17
75409;BME280;63979;55.644;37.734;2023-10-31T14:34:57;100076.94;;;10.56;77.40
75409;BME280;63979;55.644;37.734;2023-10-31T14:39:58;100063.50;;;10.57;77.35
75409;BME280;63979;55.644;37.734;2023-10-31T14:44:59;100061.28;;;10.64;77.55
75409;BME280;63979;55.644;37.734;2023-10-31T14:50:00;100067.03;;;10.58;77.61
75409;BME280;63979;55.644;37.734;2023-10-31T14:55:01;100069.84;;;10.69;77.39
75409;BME280;63979;55.644;37.734;2023-10-31T15:00:07;100047.31;;;10.46;78.12
75409;BME280;63979;55.644;37.734;2023-10-31T15:05:10;100071.69;;;10.54;78.63
75409;BME280;63979;55.644;37.734;2023-10-31T15:10:11;100001.88;;;10.34;78.46
75409;BME280;63979;55.644;37.734;2023-10-31T15:15:12;100046.78;;;10.68;78.92
75409;BME280;63979;55.644;37.734;2023-10-31T15:20:13;100035.28;;;10.53;79.42
75409;BME280;63979;55.644;37.734;2023-10-31T15:25:14;100045.31;;;10.50;79.68
75409;BME280;63979;55.644;37.734;2023-10-31T15:30:16;100053.91;;;10.41;80.29
75409;BME280;63979;55.644;37.734;2023-10-31T15:35:16;100038.56;;;10.44;79.98
75409;BME280;63979;55.644;37.734;2023-10-31T15:40:17;100042.84;;;10.18;80.72
75409;BME280;63979;55.644;37.734;2023-10-31T15:45:19;100051.44;;;9.95;82.25
75409;BME280;63979;55.644;37.734;2023-10-31T15:50:20;100032.00;;;9.93;82.19
75409;BME280;63979;55.644;37.734;2023-10-31T15:55:21;100042.22;;;9.86;82.11
75409;BME280;63979;55.644;37.734;2023-10-31T16:00:21;100044.59;;;9.91;82.29
75409;BME280;63979;55.644;37.734;2023-10-31T16:05:22;99984.97;;;9.63;82.54
75409;BME280;63979;55.644;37.734;2023-10-31T16:10:23;100034.22;;;9.86;82.66
75409;BME280;63979;55.644;37.734;2023-10-31T16:15:24;100038.84;;;9.54;84.60
75409;BME280;63979;55.644;37.734;2023-10-31T16:20:26;100033.91;;;9.62;84.37
75409;BME280;63979;55.644;37.734;2023-10-31T16:25:27;100009.91;;;9.62;83.72
75409;BME280;63979;55.644;37.734;2023-10-31T16:30:28;99994.31;;;9.70;84.00
75409;BME280;63979;55.644;37.734;2023-10-31T16:35:28;100009.56;;;9.83;83.84
75409;BME280;63979;55.644;37.734;2023-10-31T16:40:29;99964.44;;;9.51;83.89
75409;BME280;63979;55.644;37.734;2023-10-31T16:45:30;100010.13;;;9.74;84.09
75409;BME280;63979;55.644;37.734;2023-10-31T16:50:31;100008.69;;;9.68;84.49
75409;BME280;63979;55.644;37.734;2023-10-31T16:55:33;100001.53;;;9.68;84.64
75409;BME280;63979;55.644;37.734;2023-10-31T17:00:33;99956.41;;;9.65;84.16
75409;BME280;63979;55.644;37.734;2023-10-31T17:05:34;99981.56;;;9.76;84.19
75409;BME280;63979;55.644;37.734;2023-10-31T17:10:38;99964.81;;;9.59;84.57
75409;BME280;63979;55.644;37.734;2023-10-31T17:15:39;99972.78;;;9.59;85.38
75409;BME280;63979;55.644;37.734;2023-10-31T17:20:40;99958.72;;;9.72;85.22
75409;BME280;63979;55.644;37.734;2023-10-31T17:25:40;99935.75;;;9.83;84.66
75409;BME280;63979;55.644;37.734;2023-10-31T17:30:43;99884.69;;;9.48;85.52
75409;BME280;63979;55.644;37.734;2023-10-31T17:35:44;99931.88;;;9.75;85.06
75409;BME280;63979;55.644;37.734;2023-10-31T17:40:45;99916.75;;;9.75;85.25
75409;BME280;63979;55.644;37.734;2023-10-31T17:45:46;99915.69;;;9.63;85.50
75409;BME280;63979;55.644;37.734;2023-10-31T17:50:48;99904.72;;;9.68;85.45
75409;BME280;63979;55.644;37.734;2023-10-31T17:55:49;99897.63;;;9.54;85.76
75409;BME280;63979;55.644;37.734;2023-10-31T18:00:50;99892.94;;;9.72;85.80
75409;BME280;63979;55.644;37.734;2023-10-31T18:05:51;99889.53;;;9.56;86.15
75409;BME280;63979;55.644;37.734;2023-10-31T18:10:51;99866.25;;;9.45;86.25
75409;BME280;63979;55.644;37.734;2023-10-31T18:15:52;99864.72;;;9.41;86.21
75409;BME280;63979;55.644;37.734;2023-10-31T18:20:53;99850.13;;;9.61;85.98
75409;BME280;63979;55.644;37.734;2023-10-31T18:25:58;99851.06;;;9.74;85.21
75409;BME280;63979;55.644;37.734;2023-10-31T18:30:59;99844.78;;;9.75;85.22
75409;BME280;63979;55.644;37.734;2023-10-31T18:36:00;99836.28;;;9.68;84.97
75409;BME280;63979;55.644;37.734;2023-10-31T18:41:01;99827.72;;;9.78;84.36
75409;BME280;63979;55.644;37.734;2023-10-31T18:46:02;99834.56;;;9.82;84.16
75409;BME280;63979;55.644;37.734;2023-10-31T18:51:05;99824.75;;;9.82;83.86
75409;BME280;63979;55.644;37.734;2023-10-31T18:56:08;99835.97;;;9.87;83.89
75409;BME280;63979;55.644;37.734;2023-10-31T19:01:08;99826.81;;;9.91;83.23
75409;BME280;63979;55.644;37.734;2023-10-31T19:06:09;99826.81;;;9.91;82.87
75409;BME280;63979;55.644;37.734;2023-10-31T19:11:10;99819.97;;;9.87;83.11
75409;BME280;63979;55.644;37.734;2023-10-31T19:16:11;99815.53;;;10.00;82.47
75409;BME280;63979;55.644;37.734;2023-10-31T19:21:12;99799.53;;;10.00;82.45
75409;BME280;63979;55.644;37.734;2023-10-31T19:26:12;99805.69;;;9.88;82.50
75409;BME280;63979;55.644;37.734;2023-10-31T19:31:13;99752.53;;;9.73;83.22
75409;BME280;63979;55.644;37.734;2023-10-31T19:36:14;99751.19;;;9.65;83.74
75409;BME280;63979;55.644;37.734;2023-10-31T19:41:15;99759.09;;;9.67;83.85
75409;BME280;63979;55.644;37.734;2023-10-31T19:46:15;99760.97;;;9.79;83.45
75409;BME280;63979;55.644;37.734;2023-10-31T19:51:16;99723.91;;;9.62;83.48
75409;BME280;63979;55.644;37.734;2023-10-31T19:56:20;99745.09;;;9.78;83.45
75409;BME280;63979;55.644;37.734;2023-10-31T20:01:21;99699.34;;;9.44;83.81
75409;BME280;63979;55.644;37.734;2023-10-31T20:06:22;99752.88;;;9.81;83.54
75409;BME280;63979;55.644;37.734;2023-10-31T20:11:24;99739.34;;;9.84;83.85
75409;BME280;63979;55.644;37.734;2023-10-31T20:16:24;99725.03;;;9.85;83.91
75409;BME280;63979;55.644;37.734;2023-10-31T20:21:25;99717.06;;;9.85;83.94
75409;BME280;63979;55.644;37.734;2023-10-31T20:26:26;99709.47;;;9.79;84.10
75409;BME280;63979;55.644;37.734;2023-10-31T20:31:27;99707.66;;;9.79;84.10
75409;BME280;63979;55.644;37.734;2023-10-31T20:36:28;99703.72;;;9.85;84.34
75409;BME280;63979;55.644;37.734;2023-10-31T20:41:29;99701.06;;;9.85;84.46
75409;BME280;63979;55.644;37.734;2023-10-31T20:46:30;99692.41;;;9.81;84.85
75409;BME280;63979;55.644;37.734;2023-10-31T20:51:32;99686.56;;;9.89;84.87
75409;BME280;63979;55.644;37.734;2023-10-31T20:56:33;99684.44;;;9.94;85.02
75409;BME280;63979;55.644;37.734;2023-10-31T21:01:34;99682.81;;;10.04;84.81
75409;BME280;63979;55.644;37.734;2023-10-31T21:06:34;99690.53;;;10.09;85.32
75409;BME280;63979;55.644;37.734;2023-10-31T21:11:39;99684.47;;;10.19;85.09
75409;BME280;63979;55.644;37.734;2023-10-31T21:16:43;99688.00;;;10.32;84.72
75409;BME280;63979;55.644;37.734;2023-10-31T21:21:43;99682.44;;;10.36;83.96
75409;BME280;63979;55.644;37.734;2023-10-31T21:26:44;99671.78;;;10.36;84.20
75409;BME280;63979;55.644;37.734;2023-10-31T21:31:45;99667.06;;;10.39;84.13
75409;BME280;63979;55.644;37.734;2023-10-31T21:36:46;99659.41;;;10.35;84.71
75409;BME280;63979;55.644;37.734;2023-10-31T21:41:47;99638.50;;;10.41;85.03
75409;BME280;63979;55.644;37.734;2023-10-31T21:46:49;99637.00;;;10.50;84.64
75409;BME280;63979;55.644;37.734;2023-10-31T21:51:51;99642.09;;;10.53;84.78
75409;BME280;63979;55.644;37.734;2023-10-31T21:56:52;99636.53;;;10.56;85.47
75409;BME280;63979;55.644;37.734;2023-10-31T22:01:53;99625.19;;;10.65;84.73
75409;BME280;63979;55.644;37.734;2023-10-31T22:06:54;99637.13;;;10.72;84.91
75409;BME280;63979;55.644;37.734;2023-10-31T22:11:55;99623.88;;;10.83;84.50
75409;BME280;63979;55.644;37.734;2023-10-31T22:16:55;99615.75;;;10.85;84.38
75409;BME280;63979;55.644;37.734;2023-10-31T22:21:56;99612.69;;;10.78;84.04
75409;BME280;63979;55.644;37.734;2023-10-31T22:26:57;99589.94;;;10.73;84.64
75409;BME280;63979;55.644;37.734;2023-10-31T22:31:58;99565.41;;;10.68;84.49
75409;BME280;63979;55.644;37.734;2023-10-31T22:36:58;99563.13;;;10.74;84.76
75409;BME280;63979;55.644;37.734;2023-10-31T22:41:59;99567.50;;;10.75;85.05
75409;BME280;63979;55.644;37.734;2023-10-31T22:47:00;99564.94;;;10.74;85.20
75409;BME280;63979;55.644;37.734;2023-10-31T22:52:01;99564.09;;;10.73;84.98
75409;BME280;63979;55.644;37.734;2023-10-31T22:57:01;99564.94;;;10.74;85.31
75409;BME280;63979;55.644;37.734;2023-10-31T23:02:03;99561.31;;;10.75;85.53
75409;BME280;63979;55.644;37.734;2023-10-31T23:07:04;99555.44;;;10.82;85.09
75409;BME280;63979;55.644;37.734;2023-10-31T23:12:05;99543.78;;;10.83;84.94
75409;BME280;63979;55.644;37.734;2023-10-31T23:17:06;99544.00;;;10.80;85.23
75409;BME280;63979;55.644;37.734;2023-10-31T23:22:06;99541.09;;;10.83;84.99
75409;BME280;63979;55.644;37.734;2023-10-31T23:27:07;99555.13;;;10.74;85.33
75409;BME280;63979;55.644;37.734;2023-10-31T23:32:08;99543.06;;;10.69;86.25
75409;BME280;63979;55.644;37.734;2023-10-31T23:37:09;99541.34;;;10.80;85.54
75409;BME280;63979;55.644;37.734;2023-10-31T23:42:09;99535.25;;;10.78;86.09
75409;BME280;63979;55.644;37.734;2023-10-31T23:47:11;99524.34;;;10.81;86.20
75409;BME280;63979;55.644;37.734;2023-10-31T23:52:11;99520.41;;;10.74;86.28
75409;BME280;63979;55.644;37.734;2023-10-31T23:57:12;99509.66;;;10.76;86.45
